Time;durP1;ratioP1;P1;durP2;ratioP2;P2;SDS_P1;SDS_P2;PMS_P1;PMS_P2;Temp;Humidity;BMP_temperature;BMP_pressure;BME280_temperature;BME280_humidity;BME280_pressure;Samples;Min_cycle;Max_cycle;Signal;HPM_P1;HPM_P2
2022/04/13 00:01:56;;;;;;;5.55;1.52;;;20.90;99.90;;;;;;5032576;28;20370;-82
2022/04/13 00:04:23;;;;;;;7.88;1.80;;;20.90;99.90;;;;;;5032573;28;20445;-84
2022/04/13 00:06:50;;;;;;;8.50;1.63;;;20.90;99.90;;;;;;5032642;28;20413;-82
2022/04/13 00:09:17;;;;;;;11.68;1.73;;;20.90;99.90;;;;;;5032598;28;20476;-81
2022/04/13 00:11:44;;;;;;;6.68;1.48;;;21.00;99.90;;;;;;5032539;28;20420;-82
2022/04/13 00:14:11;;;;;;;7.13;1.50;;;21.00;99.90;;;;;;5032298;28;20420;-83
2022/04/13 00:16:39;;;;;;;7.10;1.42;;;21.10;99.90;;;;;;5032474;28;20384;-82
2022/04/13 00:19:06;;;;;;;6.60;1.52;;;21.30;99.90;;;;;;5032253;28;20773;-83
2022/04/13 00:21:33;;;;;;;4.78;1.40;;;21.40;99.90;;;;;;5032418;28;20377;-83
2022/04/13 00:24:00;;;;;;;9.10;1.98;;;21.30;99.90;;;;;;5032440;28;20401;-83
2022/04/13 00:26:27;;;;;;;7.13;1.87;;;21.10;99.90;;;;;;5032450;28;20452;-82
2022/04/13 00:28:54;;;;;;;8.68;1.60;;;21.00;99.90;;;;;;5032467;28;20416;-82
2022/04/13 00:31:21;;;;;;;5.00;1.60;;;20.70;99.90;;;;;;5032304;28;20409;-81
2022/04/13 00:33:47;;;;;;;3.53;1.40;;;20.50;99.90;;;;;;5032222;28;20452;-82
2022/04/13 00:36:14;;;;;;;5.85;1.50;;;20.30;99.90;;;;;;5032237;28;20388;-82
2022/04/13 00:38:41;;;;;;;7.13;1.60;;;20.40;99.90;;;;;;5032119;28;20385;-82
2022/04/13 00:41:08;;;;;;;6.10;1.40;;;20.40;99.90;;;;;;5032250;28;20392;-83
2022/04/13 00:43:35;;;;;;;9.02;1.50;;;20.40;99.90;;;;;;5031969;28;20370;-81
2022/04/13 00:46:02;;;;;;;4.88;1.50;;;20.50;99.90;;;;;;5032103;28;20385;-82
2022/04/13 00:48:34;;;;;;;4.43;1.40;;;20.60;99.90;;;;;;5032303;28;20496;-82
2022/04/13 00:51:02;;;;;;;4.65;1.40;;;20.70;99.90;;;;;;5031960;28;20405;-82
2022/04/13 00:53:31;;;;;;;10.55;1.80;;;20.90;99.90;;;;;;5031885;28;20919;-82
2022/04/13 00:55:59;;;;;;;6.47;1.55;;;21.00;99.90;;;;;;5031822;28;20377;-81
2022/04/13 00:58:29;;;;;;;5.30;1.38;;;21.30;99.90;;;;;;5031707;28;20836;-81
2022/04/13 01:00:57;;;;;;;3.17;1.30;;;22.00;99.20;;;;;;5018639;28;20385;-82
2022/04/13 01:03:27;;;;;;;3.63;1.20;;;22.60;98.10;;;;;;5031304;28;20389;-82
2022/04/13 01:05:54;;;;;;;3.65;1.02;;;23.30;96.50;;;;;;5031873;28;20386;-81
2022/04/13 01:08:22;;;;;;;2.57;0.90;;;23.60;95.50;;;;;;5031903;28;20726;-81
2022/04/13 01:10:51;;;;;;;3.67;0.85;;;24.10;91.40;;;;;;5031752;28;20382;-81
2022/04/13 01:13:18;;;;;;;2.53;0.98;;;24.40;88.60;;;;;;5031467;28;20745;-82
2022/04/13 01:15:46;;;;;;;1.77;0.90;;;24.30;87.00;;;;;;5031194;28;20400;-81
2022/04/13 01:18:14;;;;;;;3.40;1.00;;;24.00;86.40;;;;;;5031436;28;20463;-82
2022/04/13 01:20:52;;;;;;;2.78;0.90;;;23.60;86.70;;;;;;5013684;28;21116;-83
2022/04/13 01:23:21;;;;;;;1.30;0.80;;;23.00;88.00;;;;;;5031285;28;20391;-82
2022/04/13 01:25:52;;;;;;;2.22;0.80;;;22.70;90.40;;;;;;5030832;28;20420;-82
2022/04/13 01:28:19;;;;;;;2.85;1.10;;;23.20;89.30;;;;;;5031263;28;20389;-83
2022/04/13 01:30:47;;;;;;;2.10;0.90;;;23.90;88.40;;;;;;5013290;28;20401;-82
2022/04/13 01:33:17;;;;;;;4.90;1.00;;;25.00;83.60;;;;;;5010647;28;20493;-82
2022/04/13 01:35:44;;;;;;;1.97;0.80;;;25.80;80.80;;;;;;5011359;28;20410;-83
2022/04/13 01:38:12;;;;;;;3.58;1.10;;;26.40;78.30;;;;;;5012488;28;20429;-82
2022/04/13 01:40:39;;;;;;;2.28;1.00;;;26.60;74.90;;;;;;5029293;28;20416;-83
2022/04/13 01:43:06;;;;;;;1.95;0.98;;;25.80;76.30;;;;;;5013453;28;20769;-82
2022/04/13 01:45:33;;;;;;;5.32;1.13;;;24.70;78.50;;;;;;5030556;28;20885;-82
2022/04/13 01:48:00;;;;;;;4.90;1.20;;;24.10;81.80;;;;;;5030785;28;20374;-83
2022/04/13 01:50:27;;;;;;;3.90;1.00;;;24.50;82.60;;;;;;5030009;28;20447;-82
2022/04/13 01:52:54;;;;;;;1.33;0.82;;;25.30;78.90;;;;;;5030851;28;20381;-82
2022/04/13 01:55:21;;;;;;;4.25;0.98;;;26.30;76.60;;;;;;5030738;28;20408;-82
2022/04/13 01:57:48;;;;;;;3.97;0.80;;;27.60;73.10;;;;;;5030622;28;20405;-82
2022/04/13 02:00:15;;;;;;;4.15;1.05;;;28.50;67.10;;;;;;5030450;28;20377;-83
2022/04/13 02:02:42;;;;;;;7.00;1.13;;;27.60;64.50;;;;;;5030645;28;20381;-82
2022/04/13 02:05:09;;;;;;;11.57;1.52;;;26.60;67.30;;;;;;5030666;28;20499;-84
2022/04/13 02:07:37;;;;;;;4.63;1.10;;;26.20;70.60;;;;;;5030717;28;20900;-82
2022/04/13 02:10:05;;;;;;;7.00;0.90;;;26.20;71.70;;;;;;5030797;28;20385;-83
2022/04/13 02:12:32;;;;;;;3.80;0.70;;;26.40;70.10;;;;;;5031028;28;20380;-82
2022/04/13 02:14:59;;;;;;;3.42;0.63;;;25.70;69.10;;;;;;5030954;28;20378;-82
2022/04/13 02:17:26;;;;;;;1.40;0.73;;;25.00;71.70;;;;;;5012366;28;20793;-83
2022/04/13 02:19:53;;;;;;;3.17;0.70;;;24.40;74.00;;;;;;5030562;28;20431;-83
2022/04/13 02:22:20;;;;;;;1.45;0.60;;;24.50;76.10;;;;;;5030807;28;20393;-81
2022/04/13 02:24:47;;;;;;;1.70;0.80;;;24.40;75.80;;;;;;5013092;28;20401;-81
2022/04/13 02:27:14;;;;;;;4.05;0.90;;;24.00;77.50;;;;;;5030691;28;20378;-82
2022/04/13 02:29:46;;;;;;;2.17;0.70;;;23.70;80.80;;;;;;5030561;28;21027;-82
2022/04/13 02:32:13;;;;;;;5.75;0.93;;;23.50;82.10;;;;;;5030792;28;20453;-83
2022/04/13 02:34:40;;;;;;;4.80;0.90;;;24.10;82.40;;;;;;5030546;28;20388;-83
2022/04/13 02:37:10;;;;;;;6.32;0.60;;;24.30;81.10;;;;;;5030517;28;20783;-84
2022/04/13 02:39:37;;;;;;;1.73;0.40;;;24.80;79.90;;;;;;5028222;28;20390;-83
2022/04/13 02:42:04;;;;;;;1.25;0.30;;;25.80;77.90;;;;;;5027866;28;20386;-80
2022/04/13 02:44:31;;;;;;;0.57;0.30;;;26.50;74.70;;;;;;5030205;28;20405;-81
2022/04/13 02:46:59;;;;;;;1.50;0.38;;;26.50;73.30;;;;;;5025393;28;20719;-83
2022/04/13 02:49:27;;;;;;;1.63;0.20;;;26.40;73.20;;;;;;5027210;28;20390;-82
2022/04/13 02:51:54;;;;;;;6.22;0.60;;;25.30;75.10;;;;;;5030483;28;20393;-83
2022/04/13 02:54:21;;;;;;;1.38;0.40;;;25.50;76.50;;;;;;5030159;28;20385;-82
2022/04/13 02:56:48;;;;;;;14.55;1.00;;;25.80;74.90;;;;;;5029373;28;20393;-81
2022/04/13 02:59:15;;;;;;;6.70;0.85;;;25.60;75.50;;;;;;5030189;28;20381;-82
2022/04/13 03:01:45;;;;;;;16.83;1.42;;;25.80;76.00;;;;;;5028801;28;20389;-83
2022/04/13 03:04:13;;;;;;;13.23;1.05;;;26.00;74.90;;;;;;5034131;28;20429;-82
2022/04/13 03:06:40;;;;;;;13.63;1.25;;;26.00;74.70;;;;;;5034309;28;20388;-83
2022/04/13 03:09:07;;;;;;;17.50;1.48;;;26.60;71.90;;;;;;5016518;28;20388;-83
2022/04/13 03:11:34;;;;;;;16.30;1.40;;;26.40;72.60;;;;;;5033606;28;20901;-83
2022/04/13 03:14:00;;;;;;;7.13;1.10;;;26.60;73.40;;;;;;5030207;28;20369;-81
2022/04/13 03:16:27;;;;;;;6.13;0.82;;;26.80;72.00;;;;;;5032986;28;20404;-82
2022/04/13 03:18:54;;;;;;;7.57;1.08;;;26.50;73.00;;;;;;5033887;28;20378;-85
2022/04/13 03:21:21;;;;;;;9.07;1.10;;;26.40;73.90;;;;;;5033341;28;21314;-83
2022/04/13 03:23:48;;;;;;;6.43;1.15;;;26.40;75.10;;;;;;5033723;28;20386;-86
2022/04/13 03:26:15;;;;;;;6.82;0.90;;;25.80;76.70;;;;;;5033200;28;20443;-82
2022/04/13 03:28:42;;;;;;;5.70;1.00;;;25.10;78.50;;;;;;5033176;28;20378;-81
2022/04/13 03:31:09;;;;;;;6.67;1.13;;;25.30;79.40;;;;;;5032960;28;20393;-83
2022/04/13 03:33:36;;;;;;;8.85;1.20;;;25.30;80.40;;;;;;5033543;28;20377;-82
2022/04/13 03:36:03;;;;;;;9.00;1.13;;;25.80;80.00;;;;;;5033145;28;20409;-84
2022/04/13 03:38:30;;;;;;;3.85;0.90;;;26.10;78.10;;;;;;5033152;28;20385;-83
2022/04/13 03:40:57;;;;;;;1.63;0.85;;;25.60;77.60;;;;;;5032688;28;20402;-84
2022/04/13 03:43:27;;;;;;;1.48;0.75;;;25.00;80.30;;;;;;5032737;28;20835;-80
2022/04/13 03:45:54;;;;;;;3.42;0.80;;;24.50;82.10;;;;;;5031994;28;20405;-83
2022/04/13 03:48:21;;;;;;;1.10;0.75;;;24.50;83.40;;;;;;5033325;28;20378;-83
2022/04/13 03:50:49;;;;;;;3.08;0.90;;;24.50;81.60;;;;;;5032656;28;20521;-83
2022/04/13 03:53:17;;;;;;;1.60;0.70;;;24.50;83.60;;;;;;5033532;28;20776;-80
2022/04/13 03:55:44;;;;;;;7.65;0.98;;;24.30;83.00;;;;;;5032445;28;20909;-81
2022/04/13 03:58:10;;;;;;;5.82;1.30;;;23.80;86.60;;;;;;5032377;28;20433;-83
2022/04/13 04:00:37;;;;;;;4.28;1.00;;;23.30;89.90;;;;;;5032146;28;20425;-82
2022/04/13 04:03:05;;;;;;;3.45;0.77;;;23.10;90.80;;;;;;5032962;28;20845;-82
2022/04/13 04:05:31;;;;;;;3.85;0.93;;;22.90;91.00;;;;;;5032847;28;20405;-83
2022/04/13 04:07:58;;;;;;;4.70;1.00;;;22.60;92.10;;;;;;5032034;28;20416;-82
2022/04/13 04:10:25;;;;;;;9.23;1.20;;;22.20;92.90;;;;;;5032359;28;20432;-81
2022/04/13 04:12:52;;;;;;;4.18;1.00;;;22.00;95.30;;;;;;5013749;28;20398;-82
2022/04/13 04:15:19;;;;;;;12.40;1.27;;;21.70;96.90;;;;;;5031690;28;20408;-82
2022/04/13 04:17:46;;;;;;;8.50;0.93;;;21.30;99.30;;;;;;5032476;28;20397;-83
2022/04/13 04:20:13;;;;;;;5.72;0.98;;;20.90;99.90;;;;;;5032730;28;20382;-82
2022/04/13 04:22:41;;;;;;;7.30;0.98;;;20.80;99.90;;;;;;5032605;28;20386;-82
2022/04/13 04:25:09;;;;;;;4.07;0.90;;;20.70;99.90;;;;;;5032474;28;20429;-82
2022/04/13 04:27:36;;;;;;;1.55;0.50;;;20.60;99.90;;;;;;5031171;28;20381;-82
2022/04/13 04:30:04;;;;;;;2.25;0.70;;;21.00;99.90;;;;;;5032372;28;20458;-82
2022/04/13 04:32:32;;;;;;;3.15;0.80;;;20.80;99.90;;;;;;5031943;28;20397;-82
2022/04/13 04:34:59;;;;;;;6.00;0.77;;;20.70;99.90;;;;;;5032243;28;20381;-82
2022/04/13 04:37:26;;;;;;;8.25;1.10;;;20.70;99.90;;;;;;5031527;28;20389;-82
2022/04/13 04:39:53;;;;;;;3.78;0.70;;;20.70;99.90;;;;;;5031685;28;20389;-82
2022/04/13 04:42:20;;;;;;;4.18;0.77;;;20.60;99.90;;;;;;5032086;28;20389;-82
2022/04/13 04:44:47;;;;;;;3.08;0.80;;;20.40;99.90;;;;;;5032225;28;20401;-82
2022/04/13 04:47:14;;;;;;;4.28;0.80;;;20.30;99.90;;;;;;5031529;28;20823;-83
2022/04/13 04:49:43;;;;;;;2.97;0.80;;;20.20;99.90;;;;;;5031532;28;20373;-83
2022/04/13 04:52:10;;;;;;;5.18;1.00;;;20.00;99.90;;;;;;5031469;28;20436;-83
2022/04/13 04:54:39;;;;;;;6.60;0.90;;;19.80;99.90;;;;;;5031858;28;20388;-84
2022/04/13 04:57:08;;;;;;;5.43;0.90;;;19.70;99.90;;;;;;5031792;28;20378;-82
2022/04/13 04:59:35;;;;;;;4.30;0.90;;;19.70;99.90;;;;;;5031941;28;20388;-82
2022/04/13 05:02:02;;;;;;;2.47;0.70;;;19.70;99.90;;;;;;5031966;28;20564;-83
2022/04/13 05:04:29;;;;;;;2.88;0.80;;;19.60;99.90;;;;;;5031841;28;20409;-83
2022/04/13 05:06:56;;;;;;;2.47;0.75;;;19.70;99.90;;;;;;5031668;28;20392;-83
2022/04/13 05:09:25;;;;;;;1.40;0.60;;;19.90;99.90;;;;;;5031636;28;20866;-83
2022/04/13 05:11:52;;;;;;;5.97;0.70;;;19.90;99.90;;;;;;5031686;28;20463;-83
2022/04/13 05:14:20;;;;;;;3.58;0.63;;;20.00;99.90;;;;;;5031430;28;20378;-83
2022/04/13 05:16:47;;;;;;;2.88;0.60;;;20.00;99.90;;;;;;5031544;28;20409;-83
2022/04/13 05:19:15;;;;;;;5.15;0.80;;;20.00;99.90;;;;;;5031581;28;20382;-83
2022/04/13 05:21:42;;;;;;;4.22;0.70;;;20.00;99.90;;;;;;5031416;28;20891;-83
2022/04/13 05:24:09;;;;;;;3.53;0.80;;;20.30;99.90;;;;;;5030795;28;20420;-82
2022/04/13 05:26:37;;;;;;;3.95;0.60;;;20.60;99.90;;;;;;5030867;28;20439;-83
2022/04/13 05:29:04;;;;;;;2.25;0.50;;;20.70;99.90;;;;;;5031485;28;20428;-83
2022/04/13 05:31:31;;;;;;;2.92;0.60;;;20.90;99.90;;;;;;5031646;28;20392;-82
2022/04/13 05:33:57;;;;;;;2.38;0.60;;;20.70;99.90;;;;;;5031268;28;20448;-83
2022/04/13 05:36:24;;;;;;;3.60;0.80;;;20.30;99.90;;;;;;5031417;28;20678;-83
2022/04/13 05:38:51;;;;;;;4.07;0.65;;;20.10;99.90;;;;;;5031107;28;20373;-82
2022/04/13 05:41:18;;;;;;;2.78;0.50;;;19.90;99.90;;;;;;5031208;28;20431;-83
2022/04/13 05:43:45;;;;;;;5.22;0.70;;;19.70;99.90;;;;;;5030886;28;20369;-82
2022/04/13 05:46:12;;;;;;;1.98;0.70;;;19.50;99.90;;;;;;5030865;28;20431;-82
2022/04/13 05:48:39;;;;;;;0.85;0.50;;;19.50;99.90;;;;;;5031139;28;20373;-82
2022/04/13 05:51:08;;;;;;;1.27;0.40;;;19.40;99.90;;;;;;5033547;28;20795;-82
2022/04/13 05:53:36;;;;;;;1.33;0.50;;;19.40;99.90;;;;;;5030601;28;20377;-82
2022/04/13 05:56:04;;;;;;;0.60;0.52;;;19.40;99.90;;;;;;5030781;28;20405;-83
2022/04/13 05:58:31;;;;;;;4.00;0.70;;;19.40;99.90;;;;;;5030655;28;20378;-82
2022/04/13 06:00:58;;;;;;;6.40;0.70;;;19.40;99.90;;;;;;5028353;28;20477;-79
2022/04/13 06:03:25;;;;;;;6.40;0.80;;;19.30;99.90;;;;;;5031363;28;20452;-82
2022/04/13 06:05:52;;;;;;;2.17;0.77;;;19.30;99.90;;;;;;5042810;28;20902;-82
2022/04/13 06:08:19;;;;;;;2.35;0.70;;;19.20;99.90;;;;;;5036969;28;20396;-81
2022/04/13 06:10:46;;;;;;;2.50;0.77;;;19.20;99.90;;;;;;5030191;28;20820;-82
2022/04/13 06:13:14;;;;;;;2.65;0.88;;;19.00;99.90;;;;;;5010435;28;20383;-82
2022/04/13 06:15:41;;;;;;;2.70;0.90;;;18.80;99.90;;;;;;5010457;28;20882;-83
2022/04/13 06:18:08;;;;;;;6.45;1.00;;;18.70;99.90;;;;;;5029184;28;20519;-82
2022/04/13 06:20:35;;;;;;;2.95;0.68;;;18.40;99.90;;;;;;5030523;28;20465;-83
2022/04/13 06:23:02;;;;;;;1.70;0.80;;;18.30;99.90;;;;;;5030420;28;20776;-82
2022/04/13 06:25:29;;;;;;;3.88;0.80;;;18.20;99.90;;;;;;5030296;28;20402;-82
2022/04/13 06:27:56;;;;;;;6.80;1.02;;;17.90;99.90;;;;;;5030213;28;20385;-82
2022/04/13 06:30:23;;;;;;;3.40;0.90;;;17.80;99.90;;;;;;5030577;28;20952;-84
2022/04/13 06:32:50;;;;;;;2.47;0.63;;;17.80;99.90;;;;;;5030279;28;20879;-82
2022/04/13 06:35:18;;;;;;;2.75;0.68;;;17.70;99.90;;;;;;5030293;28;20385;-82
2022/04/13 06:37:48;;;;;;;1.73;0.70;;;17.70;99.90;;;;;;5036064;28;20377;-83
2022/04/13 06:40:15;;;;;;;3.80;0.90;;;17.70;99.90;;;;;;5019313;28;20849;-79
2022/04/13 06:42:43;;;;;;;5.67;1.00;;;17.60;99.90;;;;;;5036518;28;20431;-83
2022/04/13 06:45:15;;;;;;;6.05;1.45;;;17.60;99.90;;;;;;5036679;28;20518;-83
2022/04/13 06:47:43;;;;;;;5.95;1.20;;;17.50;99.90;;;;;;5036936;28;20381;-83
2022/04/13 06:50:11;;;;;;;4.20;0.80;;;17.30;99.90;;;;;;5036539;28;20384;-83
2022/04/13 06:52:39;;;;;;;7.20;1.20;;;17.20;99.90;;;;;;5036536;28;20416;-83
2022/04/13 06:55:10;;;;;;;4.53;1.30;;;17.10;99.90;;;;;;5018880;28;20385;-83
2022/04/13 06:57:40;;;;;;;1.67;1.17;;;17.10;99.90;;;;;;5036572;28;20865;-82
2022/04/13 07:00:08;;;;;;;3.05;1.23;;;17.00;99.90;;;;;;5037090;28;20435;-81
2022/04/13 07:02:39;;;;;;;2.10;1.20;;;16.90;99.90;;;;;;5036425;28;20377;-83
2022/04/13 07:05:07;;;;;;;1.65;1.02;;;16.80;99.90;;;;;;5036732;28;20405;-84
2022/04/13 07:07:34;;;;;;;5.88;1.50;;;16.80;99.90;;;;;;5037235;28;21182;-83
2022/04/13 07:10:01;;;;;;;1.90;1.10;;;16.80;99.90;;;;;;5036762;28;20425;-82
2022/04/13 07:12:35;;;;;;;1.13;0.70;;;16.70;99.90;;;;;;5037515;28;20377;-82
2022/04/13 07:15:03;;;;;;;1.00;0.80;;;16.70;99.90;;;;;;5038249;28;20380;-85
2022/04/13 07:17:30;;;;;;;2.08;0.90;;;16.60;99.90;;;;;;5038138;28;20389;-84
2022/04/13 07:19:57;;;;;;;1.13;0.80;;;16.50;99.90;;;;;;5034113;28;20391;-82
2022/04/13 07:22:24;;;;;;;2.53;1.10;;;16.50;99.90;;;;;;5036193;28;20416;-84
2022/04/13 07:24:52;;;;;;;1.50;0.80;;;16.50;99.90;;;;;;5038628;28;20948;-85
2022/04/13 07:27:19;;;;;;;1.15;0.90;;;16.40;99.90;;;;;;5020067;28;20377;-81
2022/04/13 07:29:46;;;;;;;2.58;1.20;;;16.50;99.90;;;;;;5037579;28;20849;-82
2022/04/13 07:32:13;;;;;;;4.38;1.33;;;16.40;99.90;;;;;;5037730;28;20387;-80
2022/04/13 07:34:40;;;;;;;9.68;1.80;;;16.50;99.90;;;;;;5041362;28;20391;-79
2022/04/13 07:37:07;;;;;;;4.78;1.58;;;16.50;99.90;;;;;;5039361;28;20452;-81
2022/04/13 07:39:35;;;;;;;6.05;1.70;;;16.50;99.90;;;;;;5037221;28;20745;-81
2022/04/13 07:42:02;;;;;;;5.32;1.35;;;16.50;99.90;;;;;;5033370;28;20854;-82
2022/04/13 07:44:29;;;;;;;5.50;1.40;;;16.50;99.90;;;;;;5018937;28;20401;-83
2022/04/13 07:46:56;;;;;;;2.67;1.03;;;16.50;99.90;;;;;;5036250;28;20449;-84
2022/04/13 07:49:23;;;;;;;2.25;1.00;;;16.50;99.90;;;;;;5032929;28;20397;-83
2022/04/13 07:51:50;;;;;;;1.17;0.80;;;16.50;99.90;;;;;;5032706;28;20488;-82
2022/04/13 07:54:17;;;;;;;1.77;1.00;;;16.50;99.90;;;;;;5033311;28;20377;-82
2022/04/13 07:56:44;;;;;;;1.67;0.80;;;16.50;99.90;;;;;;5015185;28;20864;-82
2022/04/13 07:59:11;;;;;;;1.92;0.90;;;16.50;99.90;;;;;;5033335;28;20396;-84
2022/04/13 08:01:38;;;;;;;2.72;0.90;;;16.40;99.90;;;;;;5032502;28;20382;-83
2022/04/13 08:04:05;;;;;;;2.75;1.20;;;16.50;99.90;;;;;;5034039;28;20551;-84
2022/04/13 08:06:32;;;;;;;2.60;1.00;;;16.50;99.90;;;;;;5032743;28;20402;-83
2022/04/13 08:08:59;;;;;;;2.60;1.02;;;16.40;99.90;;;;;;5014981;28;20393;-83
2022/04/13 08:11:26;;;;;;;2.60;1.02;;;16.40;99.90;;;;;;5032708;28;20752;-83
2022/04/13 08:13:53;;;;;;;1.70;1.15;;;16.40;99.90;;;;;;5032941;28;20370;-83
2022/04/13 08:16:20;;;;;;;1.88;1.10;;;16.50;99.90;;;;;;5032926;28;20444;-83
2022/04/13 08:18:50;;;;;;;2.58;1.30;;;16.50;99.90;;;;;;5014953;28;20757;-85
2022/04/13 08:21:17;;;;;;;3.10;1.15;;;16.50;99.90;;;;;;5032667;28;20385;-85
2022/04/13 08:23:44;;;;;;;1.90;1.15;;;16.50;99.90;;;;;;5032342;28;20385;-83
2022/04/13 08:26:11;;;;;;;2.22;1.33;;;16.50;99.90;;;;;;5032544;28;20742;-84
2022/04/13 08:28:37;;;;;;;3.60;1.30;;;16.50;99.90;;;;;;5032857;28;20400;-85
2022/04/13 08:31:07;;;;;;;4.70;1.70;;;16.40;99.90;;;;;;5015582;28;20385;-83
2022/04/13 08:33:34;;;;;;;3.70;1.73;;;16.40;99.90;;;;;;5032245;28;20386;-84
2022/04/13 08:36:04;;;;;;;6.60;2.30;;;16.40;99.90;;;;;;5032568;28;20447;-84
2022/04/13 08:38:31;;;;;;;7.97;4.50;;;16.40;99.90;;;;;;5032379;28;20733;-89
2022/04/13 08:41:00;;;;;;;4.45;3.10;;;16.30;99.90;;;;;;5032940;28;20389;-89
2022/04/13 08:43:52;;;;;;;4.85;3.10;;;16.30;99.90;;;;;;5032843;28;20388;-82
2022/04/13 08:46:24;;;;;;;8.18;4.40;;;16.20;99.90;;;;;;5012817;28;20946;-84
2022/04/13 08:48:56;;;;;;;5.22;3.78;;;16.10;99.90;;;;;;5031249;28;20427;-83
2022/04/13 08:51:25;;;;;;;3.85;2.38;;;16.00;99.90;;;;;;5032442;28;20397;-84
2022/04/13 08:54:19;;;;;;;2.63;1.85;;;15.90;99.90;;;;;;5031545;28;20397;-85
2022/04/13 08:56:48;;;;;;;4.30;1.85;;;15.90;99.90;;;;;;5025813;28;20405;-85
2022/04/13 08:59:33;;;;;;;2.70;1.92;;;15.90;99.90;;;;;;5030866;28;20390;-84
2022/04/13 09:02:30;;;;;;;2.75;2.08;;;15.80;99.90;;;;;;5031439;28;20399;-83
2022/04/13 09:05:01;;;;;;;3.20;2.08;;;15.70;99.90;;;;;;5060990;23;20422;-82
2022/04/13 09:07:34;;;;;;;2.67;2.10;;;15.70;99.90;;;;;;5072083;28;20373;-83
2022/04/13 09:10:03;;;;;;;3.97;2.10;;;15.70;99.90;;;;;;5071730;28;20780;-84
2022/04/13 09:12:33;;;;;;;4.15;2.03;;;15.70;99.90;;;;;;5071480;28;20378;-83
2022/04/13 09:15:05;;;;;;;3.92;2.20;;;15.60;99.90;;;;;;5071537;28;20471;-83
2022/04/13 09:17:32;;;;;;;2.83;1.80;;;15.60;99.90;;;;;;5061369;28;20391;-83
2022/04/13 09:20:01;;;;;;;3.08;2.00;;;15.60;99.90;;;;;;5051517;28;20740;-82
2022/04/13 09:22:31;;;;;;;3.40;1.90;;;15.60;99.90;;;;;;5052449;28;20376;-82
2022/04/13 09:25:09;;;;;;;4.25;2.00;;;15.60;99.90;;;;;;5053669;28;20756;-84
2022/04/13 09:27:38;;;;;;;2.23;2.03;;;15.60;99.90;;;;;;5052566;28;20558;-85
2022/04/13 09:30:06;;;;;;;3.53;2.20;;;15.50;99.90;;;;;;5051539;28;20398;-84
2022/04/13 09:32:34;;;;;;;2.65;2.28;;;15.50;99.90;;;;;;5070626;28;20453;-83
2022/04/13 09:35:02;;;;;;;3.10;2.30;;;15.50;99.90;;;;;;5071096;28;20378;-82
2022/04/13 09:37:30;;;;;;;3.15;2.58;;;15.50;99.90;;;;;;5070802;28;20373;-83
2022/04/13 09:39:58;;;;;;;3.17;2.80;;;15.50;99.90;;;;;;5070293;28;20377;-85
2022/04/13 09:42:28;;;;;;;4.85;2.75;;;15.50;99.90;;;;;;5071408;28;20491;-84
2022/04/13 09:44:56;;;;;;;3.77;2.97;;;15.50;99.90;;;;;;5069245;28;20450;-84
2022/04/13 09:47:31;;;;;;;4.23;3.20;;;15.50;99.90;;;;;;5071213;28;20380;-82
2022/04/13 09:49:58;;;;;;;3.25;2.70;;;15.50;99.90;;;;;;5070368;28;20370;-82
2022/04/13 09:52:38;;;;;;;3.00;2.70;;;15.50;99.90;;;;;;5051082;28;20379;-83
2022/04/13 09:55:07;;;;;;;3.30;2.70;;;15.50;99.90;;;;;;5065106;28;20453;-84
2022/04/13 09:57:34;;;;;;;3.83;2.60;;;15.50;99.90;;;;;;5067320;28;20388;-83
2022/04/13 10:00:05;;;;;;;4.22;2.63;;;15.50;99.90;;;;;;5051312;28;20407;-84
2022/04/13 10:02:38;;;;;;;4.82;2.97;;;15.60;99.90;;;;;;5050847;28;20383;-84
2022/04/13 10:05:10;;;;;;;3.85;2.72;;;15.60;99.90;;;;;;5050646;28;20407;-84
2022/04/13 10:07:37;;;;;;;3.33;2.70;;;15.50;99.90;;;;;;5051058;28;20368;-84
2022/04/13 10:10:05;;;;;;;4.18;2.60;;;15.60;99.90;;;;;;5050774;28;21035;-85
2022/04/13 10:12:49;;;;;;;3.38;2.40;;;15.60;99.90;;;;;;5054356;28;20370;-84
2022/04/13 10:15:17;;;;;;;3.20;2.60;;;15.60;99.90;;;;;;5061710;28;20752;-84
2022/04/13 10:17:44;;;;;;;3.13;2.40;;;15.60;99.90;;;;;;5050656;28;20384;-84
2022/04/13 10:20:11;;;;;;;4.03;2.35;;;15.60;99.90;;;;;;5034106;28;20431;-83
2022/04/13 10:23:01;;;;;;;5.95;2.67;;;15.50;99.90;;;;;;5050624;28;20940;-83
2022/04/13 10:25:29;;;;;;;3.95;2.25;;;15.60;99.90;;;;;;5050527;28;20403;-83
2022/04/13 10:28:01;;;;;;;3.10;1.90;;;15.60;99.90;;;;;;5050415;28;20426;-84
2022/04/13 10:30:33;;;;;;;10.23;2.70;;;15.60;99.90;;;;;;5050712;28;20808;-83
2022/04/13 10:33:08;;;;;;;11.43;2.80;;;15.70;99.90;;;;;;5015404;28;20942;-85
2022/04/13 10:35:43;;;;;;;9.20;2.50;;;15.70;99.90;;;;;;5063816;28;20382;-83
2022/04/13 10:38:12;;;;;;;7.57;2.10;;;15.60;99.90;;;;;;5070795;28;20354;-83
2022/04/13 10:40:42;;;;;;;4.95;1.70;;;15.60;99.90;;;;;;5059673;28;20392;-83
2022/04/13 10:43:11;;;;;;;4.45;1.80;;;15.50;99.90;;;;;;5072968;28;20411;-84
2022/04/13 10:45:40;;;;;;;3.20;2.00;;;15.50;99.90;;;;;;5070146;28;20450;-83
2022/04/13 10:48:11;;;;;;;4.00;1.73;;;15.50;99.90;;;;;;5066996;28;20384;-83
2022/04/13 10:51:00;;;;;;;5.80;2.00;;;15.50;99.90;;;;;;5066259;28;20429;-83
2022/04/13 10:54:09;;;;;;;4.85;1.98;;;15.40;99.90;;;;;;5068639;28;20471;-84
2022/04/13 10:56:42;;;;;;;5.33;2.10;;;15.40;99.90;;;;;;4984968;28;20447;-83
2022/04/13 10:59:18;;;;;;;6.07;1.98;;;15.40;99.90;;;;;;4987918;28;20480;-84
2022/04/13 11:01:54;;;;;;;2.93;1.70;;;15.40;99.90;;;;;;4991277;28;20385;-83
2022/04/13 11:04:23;;;;;;;3.97;1.70;;;15.40;99.90;;;;;;4988231;28;20400;-82
2022/04/13 11:06:50;;;;;;;6.18;3.45;;;15.40;99.90;;;;;;4988538;28;20462;-83
2022/04/13 11:09:41;;;;;;;15.18;7.70;;;15.30;99.90;;;;;;4988425;28;20396;-84
2022/04/13 11:12:09;;;;;;;13.90;7.18;;;15.30;99.90;;;;;;4988132;28;20407;-83
2022/04/13 11:14:54;;;;;;;5.63;3.25;;;15.30;99.90;;;;;;4988665;28;20384;-83
2022/04/13 11:17:21;;;;;;;2.80;1.87;;;15.30;99.90;;;;;;4980253;28;20838;-83
2022/04/13 11:19:49;;;;;;;2.85;1.70;;;15.40;99.90;;;;;;4988594;28;20502;-83
2022/04/13 11:22:19;;;;;;;4.20;1.83;;;15.30;99.90;;;;;;4991565;28;20389;-82
2022/04/13 11:24:50;;;;;;;3.53;2.00;;;15.40;99.90;;;;;;4991004;28;20595;-82
2022/04/13 11:27:17;;;;;;;2.70;2.30;;;15.40;99.90;;;;;;5011117;28;21004;-84
2022/04/13 11:29:56;;;;;;;6.00;3.37;;;15.30;99.90;;;;;;5053850;28;20754;-83
2022/04/13 11:32:31;;;;;;;7.95;5.63;;;15.30;99.90;;;;;;5054080;28;20371;-83
2022/04/13 11:34:59;;;;;;;9.93;5.50;;;15.20;99.90;;;;;;5054625;28;20474;-83
2022/04/13 11:37:34;;;;;;;9.27;5.15;;;15.30;99.90;;;;;;5058171;28;20388;-83
2022/04/13 11:40:05;;;;;;;6.30;3.90;;;15.30;99.90;;;;;;5053571;28;20379;-83
2022/04/13 11:42:36;;;;;;;5.55;3.63;;;15.20;99.90;;;;;;5053395;28;20546;-82
2022/04/13 11:45:17;;;;;;;3.90;2.83;;;15.30;99.90;;;;;;5053265;28;20447;-83
2022/04/13 11:47:53;;;;;;;5.32;2.70;;;15.30;99.90;;;;;;5053733;28;20379;-81
2022/04/13 11:50:21;;;;;;;4.75;2.80;;;15.20;99.90;;;;;;5053277;28;20437;-82
2022/04/13 11:53:07;;;;;;;4.53;2.50;;;15.30;99.90;;;;;;5053267;28;20490;-83
2022/04/13 11:55:46;;;;;;;3.35;2.45;;;15.30;99.90;;;;;;5053079;28;20417;-83
2022/04/13 11:58:15;;;;;;;3.03;2.60;;;15.20;99.90;;;;;;5054253;28;20899;-83
2022/04/13 12:00:57;;;;;;;5.93;2.95;;;15.20;99.90;;;;;;5053143;28;20390;-82
2022/04/13 12:03:30;;;;;;;2.80;2.60;;;15.20;99.90;;;;;;5058245;28;20390;-82
2022/04/13 12:06:10;;;;;;;5.07;2.80;;;15.10;99.90;;;;;;5058410;28;20399;-83
2022/04/13 12:08:46;;;;;;;5.53;2.97;;;15.10;99.90;;;;;;5069077;28;20475;-83
2022/04/13 12:11:18;;;;;;;3.92;2.70;;;15.00;99.90;;;;;;5072674;28;20390;-83
2022/04/13 12:14:01;;;;;;;3.25;2.50;;;15.00;99.90;;;;;;5072518;28;20369;-83
2022/04/13 12:16:39;;;;;;;5.03;2.58;;;15.00;99.90;;;;;;5072404;28;20390;-82
2022/04/13 12:19:08;;;;;;;6.30;2.75;;;15.00;99.90;;;;;;5062185;28;20387;-81
2022/04/13 12:21:37;;;;;;;4.70;2.60;;;14.90;99.90;;;;;;5069268;28;20389;-82
2022/04/13 12:24:11;;;;;;;6.80;2.45;;;14.90;99.90;;;;;;5072192;28;20924;-83
2022/04/13 12:26:41;;;;;;;4.75;2.53;;;14.90;99.90;;;;;;5072699;28;20386;-82
2022/04/13 12:29:13;;;;;;;4.00;2.70;;;14.90;99.90;;;;;;5071770;28;20382;-82
2022/04/13 12:31:54;;;;;;;4.72;2.40;;;14.80;99.90;;;;;;5066197;28;20775;-82
2022/04/13 12:34:26;;;;;;;4.40;2.40;;;14.80;99.90;;;;;;5052033;28;20368;-82
2022/04/13 12:37:06;;;;;;;4.05;2.40;;;14.80;99.90;;;;;;5052224;28;20379;-82
2022/04/13 12:39:35;;;;;;;4.20;2.75;;;14.70;99.90;;;;;;5052501;28;20457;-81
2022/04/13 12:42:03;;;;;;;4.47;2.80;;;14.70;99.90;;;;;;5064563;28;20386;-82
2022/04/13 12:44:30;;;;;;;4.60;2.88;;;14.70;99.90;;;;;;5074401;28;20471;-83
2022/04/13 12:47:08;;;;;;;3.65;2.97;;;14.70;99.90;;;;;;5072128;28;20417;-83
2022/04/13 12:49:39;;;;;;;4.03;3.10;;;14.60;99.90;;;;;;5072416;28;20362;-82
2022/04/13 12:52:07;;;;;;;5.30;2.63;;;14.50;99.90;;;;;;5071801;28;20394;-83
2022/04/13 12:54:40;;;;;;;4.73;3.00;;;14.50;99.90;;;;;;5071948;28;20378;-80
2022/04/13 12:57:07;;;;;;;3.53;2.80;;;14.50;99.90;;;;;;5071147;28;20761;-82